Keiser, Arkansas
Current Conditions -  °F | °C
As of 12:53 PM on Monday 22 Dec 2014 (Local Time) from KHKA Reporting Station
Overcast Overcast  
Wind Chill: 56°   Ceiling: 1200
Heat Index: 56°   Visibility: 10mi
Dew Point: 52°   Wind: 20mph
Humidity: 87%   Direction: 180°S
Pressure: 29.66"   Gusts: NA
Location:  35.67°N, 90.1°W
Report Text: KHKA 221853Z AUTO 18017KT 10SM OVC012 13/11 A2966 RMK AO2 SLP043 T01330111
Loading
Personal Weather Stations






























Interactive Weather Map New forecast layout! Learn more

10-Day Weather Forecast

Advertisements
Track Severe Weather on mobile